sensor_id;sensor_type;location;lat;lon;timestamp;pressure;altitude;pressure_sealevel;temperature;humidity
70468;BME280;57934;51.532;7.684;2023-05-01T00:00:18;100567.84;;;9.13;73.33
70468;BME280;57934;51.532;7.684;2023-05-01T00:02:48;100566.66;;;9.16;73.36
70468;BME280;57934;51.532;7.684;2023-05-01T00:05:14;100562.63;;;9.05;73.74
70468;BME280;57934;51.532;7.684;2023-05-01T00:07:40;100567.84;;;8.90;74.76
70468;BME280;57934;51.532;7.684;2023-05-01T00:10:06;100568.66;;;8.91;75.22
70468;BME280;57934;51.532;7.684;2023-05-01T00:12:32;100558.31;;;8.89;75.11
70468;BME280;57934;51.532;7.684;2023-05-01T00:14:58;100555.84;;;8.88;74.96
70468;BME280;57934;51.532;7.684;2023-05-01T00:17:24;100552.59;;;8.86;75.19
70468;BME280;57934;51.532;7.684;2023-05-01T00:19:53;100555.69;;;8.89;74.78
70468;BME280;57934;51.532;7.684;2023-05-01T00:22:19;100545.00;;;8.91;74.75
70468;BME280;57934;51.532;7.684;2023-05-01T00:24:45;100544.66;;;8.94;75.39
70468;BME280;57934;51.532;7.684;2023-05-01T00:27:12;100536.41;;;8.97;75.00
70468;BME280;57934;51.532;7.684;2023-05-01T00:29:38;100531.97;;;8.97;74.89
70468;BME280;57934;51.532;7.684;2023-05-01T00:32:05;100532.31;;;8.94;74.18
70468;BME280;57934;51.532;7.684;2023-05-01T00:34:31;100533.50;;;8.92;74.95
70468;BME280;57934;51.532;7.684;2023-05-01T00:36:57;100512.34;;;8.85;74.42
70468;BME280;57934;51.532;7.684;2023-05-01T00:39:23;100520.28;;;8.77;74.30
70468;BME280;57934;51.532;7.684;2023-05-01T00:41:49;100512.22;;;8.78;74.41
70468;BME280;57934;51.532;7.684;2023-05-01T00:44:15;100515.00;;;8.77;73.83
70468;BME280;57934;51.532;7.684;2023-05-01T00:46:41;100515.00;;;8.77;74.18
70468;BME280;57934;51.532;7.684;2023-05-01T00:49:08;100506.38;;;8.68;74.54
70468;BME280;57934;51.532;7.684;2023-05-01T00:51:35;100503.81;;;8.60;74.83
70468;BME280;57934;51.532;7.684;2023-05-01T00:54:02;100500.53;;;8.58;74.99
70468;BME280;57934;51.532;7.684;2023-05-01T00:56:29;100496.84;;;8.44;75.97
70468;BME280;57934;51.532;7.684;2023-05-01T00:58:55;100490.78;;;8.44;75.47
70468;BME280;57934;51.532;7.684;2023-05-01T01:01:22;100489.81;;;8.36;75.64
70468;BME280;57934;51.532;7.684;2023-05-01T01:03:48;100480.78;;;8.31;75.85
70468;BME280;57934;51.532;7.684;2023-05-01T01:09:22;100478.97;;;8.31;76.24
70468;BME280;57934;51.532;7.684;2023-05-01T01:12:33;100476.88;;;8.27;76.08
70468;BME280;57934;51.532;7.684;2023-05-01T01:15:29;100471.81;;;8.25;75.93
70468;BME280;57934;51.532;7.684;2023-05-01T01:18:17;100472.31;;;8.21;75.77
70468;BME280;57934;51.532;7.684;2023-05-01T01:20:54;100470.50;;;8.21;75.80
70468;BME280;57934;51.532;7.684;2023-05-01T01:34:35;100460.06;;;8.13;75.79
70468;BME280;57934;51.532;7.684;2023-05-01T01:37:10;100461.53;;;8.16;76.32
70468;BME280;57934;51.532;7.684;2023-05-01T01:42:29;100449.75;;;8.03;76.91
70468;BME280;57934;51.532;7.684;2023-05-01T01:44:59;100446.31;;;8.03;77.03
70468;BME280;57934;51.532;7.684;2023-05-01T01:47:29;100438.09;;;8.06;76.88
70468;BME280;57934;51.532;7.684;2023-05-01T01:49:58;100439.13;;;7.97;76.88
70468;BME280;57934;51.532;7.684;2023-05-01T01:52:26;100445.22;;;7.97;77.02
70468;BME280;57934;51.532;7.684;2023-05-01T01:54:58;100439.63;;;8.00;77.56
70468;BME280;57934;51.532;7.684;2023-05-01T01:57:26;100437.97;;;7.99;77.65
70468;BME280;57934;51.532;7.684;2023-05-01T01:59:54;100433.53;;;8.00;77.95
70468;BME280;57934;51.532;7.684;2023-05-01T02:02:21;100425.03;;;7.98;77.45
70468;BME280;57934;51.532;7.684;2023-05-01T02:04:48;100427.81;;;7.96;77.23
70468;BME280;57934;51.532;7.684;2023-05-01T02:07:17;100421.75;;;7.96;77.34
70468;BME280;57934;51.532;7.684;2023-05-01T02:09:45;100424.22;;;7.97;77.36
70468;BME280;57934;51.532;7.684;2023-05-01T02:12:13;100418.13;;;7.97;77.25
70468;BME280;57934;51.532;7.684;2023-05-01T02:14:41;100421.06;;;8.02;77.69
70468;BME280;57934;51.532;7.684;2023-05-01T02:17:09;100410.09;;;7.98;77.07
70468;BME280;57934;51.532;7.684;2023-05-01T02:19:37;100415.03;;;7.93;77.38
70468;BME280;57934;51.532;7.684;2023-05-01T02:22:06;100414.25;;;7.84;77.14
70468;BME280;57934;51.532;7.684;2023-05-01T02:24:32;100414.06;;;7.86;77.25
70468;BME280;57934;51.532;7.684;2023-05-01T02:27:03;100402.94;;;7.84;77.16
70468;BME280;57934;51.532;7.684;2023-05-01T02:29:32;100401.13;;;7.84;77.61
70468;BME280;57934;51.532;7.684;2023-05-01T02:31:59;100393.91;;;7.86;77.52
70468;BME280;57934;51.532;7.684;2023-05-01T02:34:26;100385.50;;;7.91;77.97
70468;BME280;57934;51.532;7.684;2023-05-01T02:36:52;100392.41;;;7.92;77.98
70468;BME280;57934;51.532;7.684;2023-05-01T02:39:19;100388.66;;;7.86;77.77
70468;BME280;57934;51.532;7.684;2023-05-01T02:41:46;100381.75;;;7.85;77.64
70468;BME280;57934;51.532;7.684;2023-05-01T02:44:14;100382.56;;;7.86;77.94
70468;BME280;57934;51.532;7.684;2023-05-01T02:46:42;100382.56;;;7.86;78.05
70468;BME280;57934;51.532;7.684;2023-05-01T02:49:11;100379.72;;;7.73;78.21
70468;BME280;57934;51.532;7.684;2023-05-01T02:51:37;100374.16;;;7.68;78.48
70468;BME280;57934;51.532;7.684;2023-05-01T02:54:04;100368.09;;;7.67;78.49
70468;BME280;57934;51.532;7.684;2023-05-01T02:56:30;100365.28;;;7.69;78.93
70468;BME280;57934;51.532;7.684;2023-05-01T02:58:56;100361.56;;;7.63;78.87
70468;BME280;57934;51.532;7.684;2023-05-01T03:01:22;100366.47;;;7.58;79.41
70468;BME280;57934;51.532;7.684;2023-05-01T03:03:48;100363.22;;;7.56;79.32
70468;BME280;57934;51.532;7.684;2023-05-01T03:06:14;100359.59;;;7.57;79.31
70468;BME280;57934;51.532;7.684;2023-05-01T03:08:40;100357.00;;;7.57;79.71
70468;BME280;57934;51.532;7.684;2023-05-01T03:11:07;100352.06;;;7.54;79.95
70468;BME280;57934;51.532;7.684;2023-05-01T03:13:33;100350.16;;;7.48;79.85
70468;BME280;57934;51.532;7.684;2023-05-01T03:16:00;100353.06;;;7.53;80.22
70468;BME280;57934;51.532;7.684;2023-05-01T03:18:26;100351.09;;;7.55;80.74
70468;BME280;57934;51.532;7.684;2023-05-01T03:20:53;100347.81;;;7.53;80.25
70468;BME280;57934;51.532;7.684;2023-05-01T03:23:20;100342.09;;;7.49;80.38
70468;BME280;57934;51.532;7.684;2023-05-01T03:25:46;100336.69;;;7.51;80.22
70468;BME280;57934;51.532;7.684;2023-05-01T03:28:13;100334.44;;;7.48;80.34
70468;BME280;57934;51.532;7.684;2023-05-01T03:30:39;100337.03;;;7.48;80.63
70468;BME280;57934;51.532;7.684;2023-05-01T03:33:05;100332.44;;;7.50;81.15
70468;BME280;57934;51.532;7.684;2023-05-01T03:35:32;100332.28;;;7.51;81.24
70468;BME280;57934;51.532;7.684;2023-05-01T03:37:58;100335.72;;;7.52;81.27
70468;BME280;57934;51.532;7.684;2023-05-01T03:40:45;100335.84;;;7.58;81.47
70468;BME280;57934;51.532;7.684;2023-05-01T03:43:29;100328.81;;;7.51;81.51
70468;BME280;57934;51.532;7.684;2023-05-01T03:45:57;100323.09;;;7.47;81.55
70468;BME280;57934;51.532;7.684;2023-05-01T03:48:24;100326.03;;;7.52;81.76
70468;BME280;57934;51.532;7.684;2023-05-01T03:50:50;100323.22;;;7.54;81.80
70468;BME280;57934;51.532;7.684;2023-05-01T03:53:17;100319.31;;;7.50;82.19
70468;BME280;57934;51.532;7.684;2023-05-01T03:55:43;100307.81;;;7.51;82.45
70468;BME280;57934;51.532;7.684;2023-05-01T03:58:09;100313.91;;;7.51;82.53
70468;BME280;57934;51.532;7.684;2023-05-01T04:00:36;100307.94;;;7.57;82.15
70468;BME280;57934;51.532;7.684;2023-05-01T04:03:03;100307.94;;;7.57;81.62
70468;BME280;57934;51.532;7.684;2023-05-01T04:05:31;100304.69;;;7.55;81.75
70468;BME280;57934;51.532;7.684;2023-05-01T04:08:01;100312.38;;;7.57;82.16
70468;BME280;57934;51.532;7.684;2023-05-01T04:10:27;100307.94;;;7.57;82.43
70468;BME280;57934;51.532;7.684;2023-05-01T04:12:57;100301.41;;;7.53;83.03
70468;BME280;57934;51.532;7.684;2023-05-01T04:15:23;100302.22;;;7.54;82.83
70468;BME280;57934;51.532;7.684;2023-05-01T04:17:49;100303.16;;;7.61;82.58
70468;BME280;57934;51.532;7.684;2023-05-01T04:20:16;100299.56;;;7.62;82.82
70468;BME280;57934;51.532;7.684;2023-05-01T04:22:44;100298.84;;;7.68;82.43
70468;BME280;57934;51.532;7.684;2023-05-01T04:25:10;100294.53;;;7.75;82.09
70468;BME280;57934;51.532;7.684;2023-05-01T04:27:38;100296.53;;;7.73;82.45
70468;BME280;57934;51.532;7.684;2023-05-01T04:30:05;100285.50;;;7.78;82.05
70468;BME280;57934;51.532;7.684;2023-05-01T04:32:31;100291.06;;;7.83;81.90
70468;BME280;57934;51.532;7.684;2023-05-01T04:34:57;100283.28;;;7.89;81.65
70468;BME280;57934;51.532;7.684;2023-05-01T04:37:24;100286.75;;;7.90;81.12
70468;BME280;57934;51.532;7.684;2023-05-01T04:39:50;100284.28;;;7.88;80.99
70468;BME280;57934;51.532;7.684;2023-05-01T04:42:17;100278.97;;;7.97;80.93
70468;BME280;57934;51.532;7.684;2023-05-01T04:44:44;100280.88;;;8.03;81.22
70468;BME280;57934;51.532;7.684;2023-05-01T04:47:12;100283.16;;;8.06;80.50
70468;BME280;57934;51.532;7.684;2023-05-01T04:49:38;100285.25;;;8.10;80.54
70468;BME280;57934;51.532;7.684;2023-05-01T04:52:04;100286.19;;;8.18;80.44
70468;BME280;57934;51.532;7.684;2023-05-01T04:54:42;100273.16;;;8.24;79.85
70468;BME280;57934;51.532;7.684;2023-05-01T04:57:08;100273.09;;;8.32;80.17
70468;BME280;57934;51.532;7.684;2023-05-01T04:59:34;100276.84;;;8.38;80.09
70468;BME280;57934;51.532;7.684;2023-05-01T05:02:00;100275.13;;;8.45;79.71
70468;BME280;57934;51.532;7.684;2023-05-01T05:04:26;100272.88;;;8.57;79.49
70468;BME280;57934;51.532;7.684;2023-05-01T05:06:52;100271.88;;;8.58;79.14
70468;BME280;57934;51.532;7.684;2023-05-01T05:09:26;100275.16;;;8.75;78.72
70468;BME280;57934;51.532;7.684;2023-05-01T05:11:52;100274.94;;;8.91;78.17
70468;BME280;57934;51.532;7.684;2023-05-01T05:14:21;100275.69;;;9.00;78.00
70468;BME280;57934;51.532;7.684;2023-05-01T05:16:47;100271.56;;;9.12;77.82
70468;BME280;57934;51.532;7.684;2023-05-01T05:19:13;100271.56;;;9.27;77.69
70468;BME280;57934;51.532;7.684;2023-05-01T05:21:41;100272.91;;;9.38;77.33
70468;BME280;57934;51.532;7.684;2023-05-01T05:24:07;100271.41;;;9.50;77.37
70468;BME280;57934;51.532;7.684;2023-05-01T05:26:34;100268.88;;;9.42;76.95
70468;BME280;57934;51.532;7.684;2023-05-01T05:29:02;100277.19;;;9.60;76.40
70468;BME280;57934;51.532;7.684;2023-05-01T05:31:28;100266.97;;;9.72;75.45
70468;BME280;57934;51.532;7.684;2023-05-01T05:33:54;100269.56;;;9.87;75.28
70468;BME280;57934;51.532;7.684;2023-05-01T05:36:22;100273.72;;;10.02;74.70
70468;BME280;57934;51.532;7.684;2023-05-01T05:38:49;100274.59;;;10.10;74.48
70468;BME280;57934;51.532;7.684;2023-05-01T05:41:17;100272.72;;;10.03;74.56
70468;BME280;57934;51.532;7.684;2023-05-01T05:43:44;100268.09;;;10.06;74.99
70468;BME280;57934;51.532;7.684;2023-05-01T05:46:10;100273.41;;;10.12;74.54
70468;BME280;57934;51.532;7.684;2023-05-01T05:48:37;100270.72;;;10.27;72.78
70468;BME280;57934;51.532;7.684;2023-05-01T05:51:03;100271.19;;;10.37;72.23
70468;BME280;57934;51.532;7.684;2023-05-01T05:53:29;100270.03;;;10.46;72.27
70468;BME280;57934;51.532;7.684;2023-05-01T05:55:56;100271.88;;;10.52;71.94
70468;BME280;57934;51.532;7.684;2023-05-01T05:58:22;100266.09;;;10.64;71.12
70468;BME280;57934;51.532;7.684;2023-05-01T06:00:49;100268.75;;;10.70;70.44
70468;BME280;57934;51.532;7.684;2023-05-01T06:03:17;100275.34;;;10.88;70.92
70468;BME280;57934;51.532;7.684;2023-05-01T06:05:44;100274.41;;;11.02;69.98
70468;BME280;57934;51.532;7.684;2023-05-01T06:08:11;100267.34;;;11.09;69.47
70468;BME280;57934;51.532;7.684;2023-05-01T06:10:40;100272.78;;;11.01;69.26
70468;BME280;57934;51.532;7.684;2023-05-01T06:13:06;100274.28;;;11.17;69.07
70468;BME280;57934;51.532;7.684;2023-05-01T06:15:36;100274.56;;;11.42;68.28
70468;BME280;57934;51.532;7.684;2023-05-01T06:18:03;100271.53;;;11.65;67.82
70468;BME280;57934;51.532;7.684;2023-05-01T06:20:30;100267.16;;;11.99;66.77
70468;BME280;57934;51.532;7.684;2023-05-01T06:22:56;100269.19;;;12.16;66.13
70468;BME280;57934;51.532;7.684;2023-05-01T06:25:45;100268.31;;;11.83;66.76
70468;BME280;57934;51.532;7.684;2023-05-01T06:28:13;100265.31;;;12.06;65.66
70468;BME280;57934;51.532;7.684;2023-05-01T06:30:39;100260.22;;;12.11;66.04
70468;BME280;57934;51.532;7.684;2023-05-01T06:33:05;100263.91;;;12.30;64.99
70468;BME280;57934;51.532;7.684;2023-05-01T06:35:32;100265.72;;;12.09;65.14
70468;BME280;57934;51.532;7.684;2023-05-01T06:37:58;100266.94;;;12.33;65.06
70468;BME280;57934;51.532;7.684;2023-05-01T06:40:24;100270.97;;;12.62;64.97
70468;BME280;57934;51.532;7.684;2023-05-01T06:42:51;100267.28;;;12.70;63.92
70468;BME280;57934;51.532;7.684;2023-05-01T06:45:17;100264.63;;;12.77;64.33
70468;BME280;57934;51.532;7.684;2023-05-01T06:47:43;100263.47;;;13.18;63.80
70468;BME280;57934;51.532;7.684;2023-05-01T06:50:09;100263.69;;;13.54;62.87
70468;BME280;57934;51.532;7.684;2023-05-01T06:52:35;100262.34;;;13.77;61.78
70468;BME280;57934;51.532;7.684;2023-05-01T06:55:01;100263.41;;;14.01;61.11
70468;BME280;57934;51.532;7.684;2023-05-01T06:57:28;100257.97;;;14.14;61.45
70468;BME280;57934;51.532;7.684;2023-05-01T06:59:54;100255.94;;;14.35;60.64
70468;BME280;57934;51.532;7.684;2023-05-01T07:02:21;100256.00;;;14.03;61.82
70468;BME280;57934;51.532;7.684;2023-05-01T07:04:47;100255.06;;;14.22;60.72
70468;BME280;57934;51.532;7.684;2023-05-01T07:07:13;100251.31;;;14.48;60.09
70468;BME280;57934;51.532;7.684;2023-05-01T07:09:39;100258.25;;;14.74;58.73
70468;BME280;57934;51.532;7.684;2023-05-01T07:12:06;100259.19;;;14.80;59.48
70468;BME280;57934;51.532;7.684;2023-05-01T07:14:33;100256.53;;;14.80;60.07
70468;BME280;57934;51.532;7.684;2023-05-01T07:16:59;100259.63;;;14.95;58.59
70468;BME280;57934;51.532;7.684;2023-05-01T07:19:25;100260.94;;;15.04;58.69
70468;BME280;57934;51.532;7.684;2023-05-01T07:21:51;100248.22;;;15.25;58.25
70468;BME280;57934;51.532;7.684;2023-05-01T07:24:17;100256.19;;;15.25;59.01
70468;BME280;57934;51.532;7.684;2023-05-01T07:26:43;100251.59;;;15.32;57.56
70468;BME280;57934;51.532;7.684;2023-05-01T07:29:09;100254.06;;;15.45;57.60
70468;BME280;57934;51.532;7.684;2023-05-01T07:31:36;100247.72;;;15.46;57.92
70468;BME280;57934;51.532;7.684;2023-05-01T07:34:03;100255.81;;;15.21;58.01
70468;BME280;57934;51.532;7.684;2023-05-01T07:36:29;100256.91;;;15.62;58.29
70468;BME280;57934;51.532;7.684;2023-05-01T07:38:55;100247.38;;;15.73;58.94
70468;BME280;57934;51.532;7.684;2023-05-01T07:41:22;100243.03;;;16.02;58.00
70468;BME280;57934;51.532;7.684;2023-05-01T07:43:50;100245.22;;;16.64;56.97
70468;BME280;57934;51.532;7.684;2023-05-01T07:46:16;100243.97;;;17.07;55.45
70468;BME280;57934;51.532;7.684;2023-05-01T07:48:41;100238.06;;;17.33;54.12
70468;BME280;57934;51.532;7.684;2023-05-01T07:51:07;100238.72;;;17.69;53.85
70468;BME280;57934;51.532;7.684;2023-05-01T07:53:33;100242.78;;;17.88;53.13
70468;BME280;57934;51.532;7.684;2023-05-01T07:56:04;100242.69;;;18.00;53.09
70468;BME280;57934;51.532;7.684;2023-05-01T07:58:30;100244.00;;;17.98;53.53
70468;BME280;57934;51.532;7.684;2023-05-01T08:00:56;100243.31;;;18.24;53.00
70468;BME280;57934;51.532;7.684;2023-05-01T08:03:22;100242.78;;;18.61;52.26
70468;BME280;57934;51.532;7.684;2023-05-01T08:05:48;100243.25;;;18.75;51.08
70468;BME280;57934;51.532;7.684;2023-05-01T08:08:14;100244.13;;;19.02;49.78
70468;BME280;57934;51.532;7.684;2023-05-01T08:10:45;100241.50;;;19.35;49.29
70468;BME280;57934;51.532;7.684;2023-05-01T08:13:11;100242.94;;;20.01;48.60
70468;BME280;57934;51.532;7.684;2023-05-01T08:15:37;100236.06;;;20.58;45.96
70468;BME280;57934;51.532;7.684;2023-05-01T08:18:04;100233.81;;;20.97;45.18
70468;BME280;57934;51.532;7.684;2023-05-01T08:20:30;100236.66;;;21.59;43.42
70468;BME280;57934;51.532;7.684;2023-05-01T08:22:56;100235.00;;;22.04;41.64
70468;BME280;57934;51.532;7.684;2023-05-01T08:25:22;100237.72;;;21.88;41.40
70468;BME280;57934;51.532;7.684;2023-05-01T08:27:48;100231.53;;;21.67;41.88
70468;BME280;57934;51.532;7.684;2023-05-01T08:30:14;100232.88;;;22.01;41.15
70468;BME280;57934;51.532;7.684;2023-05-01T08:32:40;100231.25;;;22.10;41.07
70468;BME280;57934;51.532;7.684;2023-05-01T08:35:06;100234.19;;;22.13;40.32
70468;BME280;57934;51.532;7.684;2023-05-01T08:37:32;100229.13;;;22.22;40.32
70468;BME280;57934;51.532;7.684;2023-05-01T08:39:58;100228.56;;;22.30;41.10
70468;BME280;57934;51.532;7.684;2023-05-01T08:42:24;100230.88;;;22.68;40.74
70468;BME280;57934;51.532;7.684;2023-05-01T08:44:52;100221.00;;;22.37;39.86
70468;BME280;57934;51.532;7.684;2023-05-01T08:47:19;100227.22;;;22.07;39.46
70468;BME280;57934;51.532;7.684;2023-05-01T08:49:46;100220.00;;;21.82;39.54
70468;BME280;57934;51.532;7.684;2023-05-01T08:52:15;100225.88;;;22.25;38.38
70468;BME280;57934;51.532;7.684;2023-05-01T08:54:43;100224.56;;;21.82;39.54
70468;BME280;57934;51.532;7.684;2023-05-01T08:57:11;100226.84;;;20.96;40.70
70468;BME280;57934;51.532;7.684;2023-05-01T08:59:38;100219.47;;;21.60;40.76
70468;BME280;57934;51.532;7.684;2023-05-01T09:02:06;100218.28;;;22.53;39.72
70468;BME280;57934;51.532;7.684;2023-05-01T09:04:38;100227.84;;;23.34;38.77
70468;BME280;57934;51.532;7.684;2023-05-01T09:07:05;100228.41;;;24.58;34.94
70468;BME280;57934;51.532;7.684;2023-05-01T09:09:31;100217.06;;;24.98;36.16
70468;BME280;57934;51.532;7.684;2023-05-01T09:12:12;100212.75;;;24.31;34.92
70468;BME280;57934;51.532;7.684;2023-05-01T09:14:42;100221.63;;;23.78;37.60
70468;BME280;57934;51.532;7.684;2023-05-01T09:17:11;100214.97;;;23.26;37.63
70468;BME280;57934;51.532;7.684;2023-05-01T09:19:38;100213.91;;;23.66;37.17
70468;BME280;57934;51.532;7.684;2023-05-01T09:22:06;100207.69;;;24.96;36.01
70468;BME280;57934;51.532;7.684;2023-05-01T09:24:32;100212.59;;;25.64;35.01
70468;BME280;57934;51.532;7.684;2023-05-01T09:26:58;100203.59;;;25.88;33.71
70468;BME280;57934;51.532;7.684;2023-05-01T09:29:51;100206.03;;;25.70;34.97
70468;BME280;57934;51.532;7.684;2023-05-01T09:32:22;100202.28;;;25.85;33.83
70468;BME280;57934;51.532;7.684;2023-05-01T09:34:50;100202.53;;;26.16;33.82
70468;BME280;57934;51.532;7.684;2023-05-01T09:37:30;100195.84;;;26.55;32.67
70468;BME280;57934;51.532;7.684;2023-05-01T09:40:15;100196.72;;;26.09;32.63
70468;BME280;57934;51.532;7.684;2023-05-01T09:42:51;100195.84;;;24.92;34.21
70468;BME280;57934;51.532;7.684;2023-05-01T09:45:18;100198.25;;;24.26;35.99
70468;BME280;57934;51.532;7.684;2023-05-01T09:47:45;100208.31;;;23.92;37.33
70468;BME280;57934;51.532;7.684;2023-05-01T09:50:27;100195.81;;;23.72;36.65
70468;BME280;57934;51.532;7.684;2023-05-01T09:52:54;100197.44;;;23.73;37.64
70468;BME280;57934;51.532;7.684;2023-05-01T09:55:20;100195.38;;;24.47;36.18
70468;BME280;57934;51.532;7.684;2023-05-01T09:57:48;100199.06;;;24.94;33.93
70468;BME280;57934;51.532;7.684;2023-05-01T10:00:15;100193.00;;;25.91;33.03
70468;BME280;57934;51.532;7.684;2023-05-01T10:02:45;100194.66;;;26.48;32.64
70468;BME280;57934;51.532;7.684;2023-05-01T10:05:11;100193.06;;;28.09;31.70
70468;BME280;57934;51.532;7.684;2023-05-01T10:07:39;100193.28;;;29.48;29.85
70468;BME280;57934;51.532;7.684;2023-05-01T10:10:20;100189.91;;;29.68;28.28
70468;BME280;57934;51.532;7.684;2023-05-01T10:12:47;100182.59;;;29.43;27.27
70468;BME280;57934;51.532;7.684;2023-05-01T10:15:14;100189.72;;;30.59;27.44
70468;BME280;57934;51.532;7.684;2023-05-01T10:17:42;100185.06;;;30.59;27.04
70468;BME280;57934;51.532;7.684;2023-05-01T10:20:10;100182.28;;;31.10;26.23
70468;BME280;57934;51.532;7.684;2023-05-01T10:22:40;100181.72;;;31.04;26.74
70468;BME280;57934;51.532;7.684;2023-05-01T10:25:08;100176.31;;;31.17;25.95
70468;BME280;57934;51.532;7.684;2023-05-01T10:27:34;100179.38;;;31.36;26.07
70468;BME280;57934;51.532;7.684;2023-05-01T10:30:03;100164.88;;;29.92;27.60
70468;BME280;57934;51.532;7.684;2023-05-01T10:32:32;100181.06;;;28.50;29.91
70468;BME280;57934;51.532;7.684;2023-05-01T10:35:09;100170.38;;;26.70;31.70
70468;BME280;57934;51.532;7.684;2023-05-01T10:37:47;100174.59;;;26.21;31.74
70468;BME280;57934;51.532;7.684;2023-05-01T10:40:43;100164.09;;;25.40;31.70
70468;BME280;57934;51.532;7.684;2023-05-01T10:43:29;100166.75;;;25.08;31.34
70468;BME280;57934;51.532;7.684;2023-05-01T10:51:22;100157.75;;;27.02;28.56
70468;BME280;57934;51.532;7.684;2023-05-01T10:59:04;100157.44;;;26.67;28.52
70468;BME280;57934;51.532;7.684;2023-05-01T11:01:40;100157.88;;;26.33;29.29
70468;BME280;57934;51.532;7.684;2023-05-01T11:09:38;100154.66;;;23.66;34.67
70468;BME280;57934;51.532;7.684;2023-05-01T11:12:05;100155.81;;;21.96;35.04
70468;BME280;57934;51.532;7.684;2023-05-01T11:20:12;100151.53;;;21.18;38.37
70468;BME280;57934;51.532;7.684;2023-05-01T11:22:57;100145.56;;;20.81;38.98
70468;BME280;57934;51.532;7.684;2023-05-01T11:25:25;100150.09;;;20.65;39.75
70468;BME280;57934;51.532;7.684;2023-05-01T11:28:00;100147.44;;;20.17;39.68
70468;BME280;57934;51.532;7.684;2023-05-01T11:30:36;100149.66;;;19.83;40.03
70468;BME280;57934;51.532;7.684;2023-05-01T11:33:02;100159.88;;;19.27;40.42
70468;BME280;57934;51.532;7.684;2023-05-01T11:35:30;100160.63;;;19.22;41.23
70468;BME280;57934;51.532;7.684;2023-05-01T11:37:57;100156.09;;;19.23;42.38
70468;BME280;57934;51.532;7.684;2023-05-01T11:40:31;100153.63;;;19.16;42.05
70468;BME280;57934;51.532;7.684;2023-05-01T11:43:01;100147.16;;;19.39;42.63
70468;BME280;57934;51.532;7.684;2023-05-01T11:45:28;100153.94;;;19.52;41.57
70468;BME280;57934;51.532;7.684;2023-05-01T11:47:54;100150.59;;;19.35;42.04
70468;BME280;57934;51.532;7.684;2023-05-01T11:50:21;100146.66;;;19.79;40.91
70468;BME280;57934;51.532;7.684;2023-05-01T11:52:50;100149.28;;;20.64;40.45
70468;BME280;57934;51.532;7.684;2023-05-01T11:55:20;100144.53;;;21.07;40.57
70468;BME280;57934;51.532;7.684;2023-05-01T11:57:51;100150.47;;;21.71;39.37
70468;BME280;57934;51.532;7.684;2023-05-01T12:00:34;100146.19;;;21.70;37.67
70468;BME280;57934;51.532;7.684;2023-05-01T12:03:06;100144.56;;;21.58;38.64
70468;BME280;57934;51.532;7.684;2023-05-01T12:05:34;100141.91;;;21.53;38.98
70468;BME280;57934;51.532;7.684;2023-05-01T12:10:35;100149.25;;;20.59;40.68
70468;BME280;57934;51.532;7.684;2023-05-01T12:13:02;100139.91;;;20.72;40.60
70468;BME280;57934;51.532;7.684;2023-05-01T12:15:29;100140.47;;;20.11;39.38
70468;BME280;57934;51.532;7.684;2023-05-01T12:17:56;100136.44;;;20.71;39.22
70468;BME280;57934;51.532;7.684;2023-05-01T12:20:45;100128.53;;;20.49;39.94
70468;BME280;57934;51.532;7.684;2023-05-01T12:23:17;100129.56;;;20.33;38.98
70468;BME280;57934;51.532;7.684;2023-05-01T12:25:44;100128.31;;;19.98;40.68
70468;BME280;57934;51.532;7.684;2023-05-01T12:28:15;100134.94;;;20.33;39.89
70468;BME280;57934;51.532;7.684;2023-05-01T12:30:42;100129.16;;;20.62;39.94
70468;BME280;57934;51.532;7.684;2023-05-01T12:33:14;100130.28;;;20.71;39.64
70468;BME280;57934;51.532;7.684;2023-05-01T12:35:42;100129.72;;;20.74;39.46
70468;BME280;57934;51.532;7.684;2023-05-01T12:40:57;100121.50;;;21.06;38.77
70468;BME280;57934;51.532;7.684;2023-05-01T12:43:32;100125.78;;;21.17;39.16
70468;BME280;57934;51.532;7.684;2023-05-01T12:46:00;100121.47;;;21.01;40.65
70468;BME280;57934;51.532;7.684;2023-05-01T12:48:27;100126.56;;;21.23;41.58
70468;BME280;57934;51.532;7.684;2023-05-01T12:50:54;100120.72;;;21.41;40.27
70468;BME280;57934;51.532;7.684;2023-05-01T12:53:22;100126.06;;;21.57;39.21
70468;BME280;57934;51.532;7.684;2023-05-01T12:55:50;100128.97;;;21.86;38.63
70468;BME280;57934;51.532;7.684;2023-05-01T12:58:17;100118.78;;;21.78;38.25
70468;BME280;57934;51.532;7.684;2023-05-01T13:00:54;100119.28;;;22.05;38.13
70468;BME280;57934;51.532;7.684;2023-05-01T13:03:25;100113.91;;;22.00;38.37
70468;BME280;57934;51.532;7.684;2023-05-01T13:05:53;100114.69;;;22.01;38.52
70468;BME280;57934;51.532;7.684;2023-05-01T13:08:30;100112.81;;;22.17;37.92
70468;BME280;57934;51.532;7.684;2023-05-01T13:10:59;100114.13;;;22.14;37.28
70468;BME280;57934;51.532;7.684;2023-05-01T13:13:33;100104.50;;;22.03;37.61
70468;BME280;57934;51.532;7.684;2023-05-01T13:16:07;100106.19;;;22.58;36.96
70468;BME280;57934;51.532;7.684;2023-05-01T13:21:11;100099.91;;;22.13;38.91
70468;BME280;57934;51.532;7.684;2023-05-01T13:23:39;100096.41;;;22.23;37.85
70468;BME280;57934;51.532;7.684;2023-05-01T13:26:06;100094.44;;;22.39;38.47
70468;BME280;57934;51.532;7.684;2023-05-01T13:28:34;100086.81;;;21.86;37.11
70468;BME280;57934;51.532;7.684;2023-05-01T13:31:00;100087.06;;;21.95;37.25
70468;BME280;57934;51.532;7.684;2023-05-01T13:33:29;100090.09;;;21.12;38.76
70468;BME280;57934;51.532;7.684;2023-05-01T13:35:56;100092.81;;;21.17;40.90
70468;BME280;57934;51.532;7.684;2023-05-01T13:38:22;100082.84;;;21.68;38.86
70468;BME280;57934;51.532;7.684;2023-05-01T13:40:49;100087.09;;;21.85;38.42
70468;BME280;57934;51.532;7.684;2023-05-01T13:43:16;100086.63;;;21.52;39.01
70468;BME280;57934;51.532;7.684;2023-05-01T13:45:42;100082.31;;;21.61;39.92
70468;BME280;57934;51.532;7.684;2023-05-01T13:48:08;100083.97;;;21.37;38.96